Home PIREPS Pireps

Flight SLR8121

  • Submitted By: Vincent Fourni
  • Departure Airport: Bruxelles National (EBBR)
  • Arrival Airport: Palma de Mallorca / Son San Juan (LEPA)
  • Aircraft: B737-800 (OO-SLR)
  • Flight Time: 02.06
  • Date Submitted: 24/05/2016
  • Status: Accepted
Flight Details
Gross Revenue:
(124 load / € 0.00 per unit
€ 0.00
Fuel Cost:
(5110 fuel used @ 5.1 / unit)
€ 26,061.00

Additional Log Information:

View Log

Aircraft Used in flight is Boeing 737-800NGX JetairFly Airlines (TUI) Wingl
12:52 Brakes are On
12:52 Brakes are Released
12:55 Brakes are On
12:58 Brakes are Released
13:04 You Took off @ 169 Knots and Flaps at Position 3
Departure Weather
EBBR 241050Z 33008KT 280V010 9999 BKN030 13/07 Q1018 NOSIGrn
13:04 Landing Gear Up @ 165 Knots and 1620 Feet
13:05 Below FL100 you need to turn on the landing lights
13:07 Below 10000 feet you are not allowed to go over 250 knots
14:48 Landing Gear Down @ 181 Knots and 2350 Feet
14:52 You Landed @ 158 Knots and with -100 Vertical Speed
Arrival Weather
LEPA 241230Z 24013KT 200V260 9999 FEW030 22/13 Q1015 NOSIGrn
14:55 Brakes are On
14:58 Brussels Bel-Track1.0.1.2

Route Map

Corporate About Us Our Team Vacancies Information Fleet Route Network Rules and Regulations Operations Flight Schedules Event Center Tours Partners IVAO Vatsim Acars dev FSCB

fb Users Online No pilots online!
0 Pilot(s) and 149 Guest(s) Online
CMS by phpVMS - Design by Crazycreatives.com - Copyright © 2020 - Brussels Airlines Virtual